sensor_id;sensor_type;location;lat;lon;timestamp;P1;durP1;ratioP1;P2;durP2;ratioP2
68800;SDS011;55784;50.734;7.086;2022-08-04T00:00:28;8.73;;;2.38;;
68800;SDS011;55784;50.734;7.086;2022-08-04T00:11:03;6.05;;;2.30;;
68800;SDS011;55784;50.734;7.086;2022-08-04T00:13:33;5.72;;;2.17;;
68800;SDS011;55784;50.734;7.086;2022-08-04T00:16:07;5.85;;;2.03;;
68800;SDS011;55784;50.734;7.086;2022-08-04T00:18:56;5.40;;;1.90;;
68800;SDS011;55784;50.734;7.086;2022-08-04T00:21:24;7.70;;;2.38;;
68800;SDS011;55784;50.734;7.086;2022-08-04T00:23:51;6.75;;;2.30;;
68800;SDS011;55784;50.734;7.086;2022-08-04T00:26:18;5.80;;;2.03;;
68800;SDS011;55784;50.734;7.086;2022-08-04T00:28:44;7.18;;;2.22;;
68800;SDS011;55784;50.734;7.086;2022-08-04T00:31:12;6.00;;;2.10;;
68800;SDS011;55784;50.734;7.086;2022-08-04T00:33:42;7.05;;;2.00;;
68800;SDS011;55784;50.734;7.086;2022-08-04T00:36:12;6.97;;;2.20;;
68800;SDS011;55784;50.734;7.086;2022-08-04T00:38:41;6.20;;;2.00;;
68800;SDS011;55784;50.734;7.086;2022-08-04T00:41:14;6.20;;;2.13;;
68800;SDS011;55784;50.734;7.086;2022-08-04T00:44:08;6.57;;;2.07;;
68800;SDS011;55784;50.734;7.086;2022-08-04T00:52:00;6.33;;;1.90;;
68800;SDS011;55784;50.734;7.086;2022-08-04T00:54:33;5.80;;;1.88;;
68800;SDS011;55784;50.734;7.086;2022-08-04T00:57:29;7.00;;;1.90;;
68800;SDS011;55784;50.734;7.086;2022-08-04T01:00:12;9.23;;;2.33;;
68800;SDS011;55784;50.734;7.086;2022-08-04T01:11:18;7.95;;;2.15;;
68800;SDS011;55784;50.734;7.086;2022-08-04T01:16:45;6.95;;;2.40;;
68800;SDS011;55784;50.734;7.086;2022-08-04T01:28:20;7.17;;;2.43;;
68800;SDS011;55784;50.734;7.086;2022-08-04T01:34:21;7.18;;;2.30;;
68800;SDS011;55784;50.734;7.086;2022-08-04T01:37:07;6.35;;;2.10;;
68800;SDS011;55784;50.734;7.086;2022-08-04T01:39:38;6.53;;;2.40;;
68800;SDS011;55784;50.734;7.086;2022-08-04T01:42:13;6.30;;;2.30;;
68800;SDS011;55784;50.734;7.086;2022-08-04T01:44:43;6.75;;;2.20;;
68800;SDS011;55784;50.734;7.086;2022-08-04T01:47:12;5.70;;;2.10;;
68800;SDS011;55784;50.734;7.086;2022-08-04T01:49:40;6.97;;;2.05;;
68800;SDS011;55784;50.734;7.086;2022-08-04T01:52:10;6.28;;;2.15;;
68800;SDS011;55784;50.734;7.086;2022-08-04T01:54:40;6.77;;;2.30;;
68800;SDS011;55784;50.734;7.086;2022-08-04T01:57:06;5.43;;;2.00;;
68800;SDS011;55784;50.734;7.086;2022-08-04T01:59:34;5.63;;;2.30;;
68800;SDS011;55784;50.734;7.086;2022-08-04T02:02:00;7.80;;;2.50;;
68800;SDS011;55784;50.734;7.086;2022-08-04T02:04:26;5.73;;;2.00;;
68800;SDS011;55784;50.734;7.086;2022-08-04T02:15:13;6.10;;;2.13;;
68800;SDS011;55784;50.734;7.086;2022-08-04T02:20:43;7.32;;;2.20;;
68800;SDS011;55784;50.734;7.086;2022-08-04T02:23:14;6.28;;;2.20;;
68800;SDS011;55784;50.734;7.086;2022-08-04T02:25:56;5.85;;;2.00;;
68800;SDS011;55784;50.734;7.086;2022-08-04T02:31:02;6.45;;;2.00;;
68800;SDS011;55784;50.734;7.086;2022-08-04T02:33:38;6.15;;;2.08;;
68800;SDS011;55784;50.734;7.086;2022-08-04T02:36:08;7.32;;;2.00;;
68800;SDS011;55784;50.734;7.086;2022-08-04T02:39:11;6.07;;;2.20;;
68800;SDS011;55784;50.734;7.086;2022-08-04T02:41:32;7.40;;;2.10;;
68800;SDS011;55784;50.734;7.086;2022-08-04T02:43:59;7.65;;;2.22;;
68800;SDS011;55784;50.734;7.086;2022-08-04T02:46:26;6.32;;;2.33;;
68800;SDS011;55784;50.734;7.086;2022-08-04T02:48:53;7.20;;;2.45;;
68800;SDS011;55784;50.734;7.086;2022-08-04T02:52:02;6.47;;;2.30;;
68800;SDS011;55784;50.734;7.086;2022-08-04T02:54:14;5.70;;;2.10;;
68800;SDS011;55784;50.734;7.086;2022-08-04T02:56:41;7.97;;;2.35;;
68800;SDS011;55784;50.734;7.086;2022-08-04T02:59:10;5.78;;;2.33;;
68800;SDS011;55784;50.734;7.086;2022-08-04T03:01:37;7.32;;;2.40;;
68800;SDS011;55784;50.734;7.086;2022-08-04T03:24:15;6.35;;;2.30;;
68800;SDS011;55784;50.734;7.086;2022-08-04T03:27:08;7.72;;;2.70;;
68800;SDS011;55784;50.734;7.086;2022-08-04T03:44:34;9.18;;;3.00;;
68800;SDS011;55784;50.734;7.086;2022-08-04T03:47:27;8.73;;;2.85;;
68800;SDS011;55784;50.734;7.086;2022-08-04T04:03:25;8.10;;;2.93;;
68800;SDS011;55784;50.734;7.086;2022-08-04T04:06:21;7.70;;;2.53;;
68800;SDS011;55784;50.734;7.086;2022-08-04T04:11:44;6.47;;;2.50;;
68800;SDS011;55784;50.734;7.086;2022-08-04T04:16:57;6.60;;;2.60;;
68800;SDS011;55784;50.734;7.086;2022-08-04T04:22:40;7.00;;;2.83;;
68800;SDS011;55784;50.734;7.086;2022-08-04T04:25:25;7.57;;;2.70;;
68800;SDS011;55784;50.734;7.086;2022-08-04T04:28:18;7.22;;;2.92;;
68800;SDS011;55784;50.734;7.086;2022-08-04T04:30:55;7.73;;;2.90;;
68800;SDS011;55784;50.734;7.086;2022-08-04T04:33:55;6.85;;;2.75;;
68800;SDS011;55784;50.734;7.086;2022-08-04T04:39:42;7.50;;;2.67;;
68800;SDS011;55784;50.734;7.086;2022-08-04T04:53:41;8.57;;;3.20;;
68800;SDS011;55784;50.734;7.086;2022-08-04T04:59:00;8.23;;;2.72;;
68800;SDS011;55784;50.734;7.086;2022-08-04T05:01:39;6.95;;;2.75;;
68800;SDS011;55784;50.734;7.086;2022-08-04T05:07:34;7.40;;;2.90;;
68800;SDS011;55784;50.734;7.086;2022-08-04T05:10:58;7.47;;;3.03;;
68800;SDS011;55784;50.734;7.086;2022-08-04T05:13:35;6.93;;;2.90;;
68800;SDS011;55784;50.734;7.086;2022-08-04T05:16:18;8.00;;;3.00;;
68800;SDS011;55784;50.734;7.086;2022-08-04T05:22:01;8.23;;;2.70;;
68800;SDS011;55784;50.734;7.086;2022-08-04T05:24:31;7.15;;;2.70;;
68800;SDS011;55784;50.734;7.086;2022-08-04T05:27:02;8.85;;;3.10;;
68800;SDS011;55784;50.734;7.086;2022-08-04T05:29:36;7.00;;;3.28;;
68800;SDS011;55784;50.734;7.086;2022-08-04T05:32:06;7.05;;;3.10;;
68800;SDS011;55784;50.734;7.086;2022-08-04T05:34:38;9.97;;;3.50;;
68800;SDS011;55784;50.734;7.086;2022-08-04T05:37:10;7.72;;;3.50;;
68800;SDS011;55784;50.734;7.086;2022-08-04T05:39:44;8.30;;;3.30;;
68800;SDS011;55784;50.734;7.086;2022-08-04T05:42:16;14.07;;;3.80;;
68800;SDS011;55784;50.734;7.086;2022-08-04T05:44:41;10.03;;;5.00;;
68800;SDS011;55784;50.734;7.086;2022-08-04T05:47:07;9.40;;;3.53;;
68800;SDS011;55784;50.734;7.086;2022-08-04T05:49:36;7.95;;;3.67;;
68800;SDS011;55784;50.734;7.086;2022-08-04T05:52:03;8.07;;;3.00;;
68800;SDS011;55784;50.734;7.086;2022-08-04T05:54:30;9.43;;;3.75;;
68800;SDS011;55784;50.734;7.086;2022-08-04T05:56:57;8.15;;;3.55;;
68800;SDS011;55784;50.734;7.086;2022-08-04T05:59:23;9.80;;;3.70;;
68800;SDS011;55784;50.734;7.086;2022-08-04T06:01:54;8.73;;;3.45;;
68800;SDS011;55784;50.734;7.086;2022-08-04T06:04:21;9.47;;;3.53;;
68800;SDS011;55784;50.734;7.086;2022-08-04T06:07:02;9.10;;;4.00;;
68800;SDS011;55784;50.734;7.086;2022-08-04T06:09:28;8.30;;;3.50;;
68800;SDS011;55784;50.734;7.086;2022-08-04T06:11:55;9.15;;;3.83;;
68800;SDS011;55784;50.734;7.086;2022-08-04T06:14:25;8.60;;;3.42;;
68800;SDS011;55784;50.734;7.086;2022-08-04T06:16:51;9.47;;;3.30;;
68800;SDS011;55784;50.734;7.086;2022-08-04T06:19:19;8.60;;;3.30;;
68800;SDS011;55784;50.734;7.086;2022-08-04T06:21:47;8.75;;;3.47;;
68800;SDS011;55784;50.734;7.086;2022-08-04T06:24:16;7.78;;;3.58;;
68800;SDS011;55784;50.734;7.086;2022-08-04T06:26:44;9.57;;;4.30;;
68800;SDS011;55784;50.734;7.086;2022-08-04T06:29:13;10.10;;;3.60;;
68800;SDS011;55784;50.734;7.086;2022-08-04T06:31:48;7.85;;;3.47;;
68800;SDS011;55784;50.734;7.086;2022-08-04T06:34:26;9.18;;;3.58;;
68800;SDS011;55784;50.734;7.086;2022-08-04T06:36:52;7.72;;;3.78;;
68800;SDS011;55784;50.734;7.086;2022-08-04T06:39:20;11.50;;;3.85;;
68800;SDS011;55784;50.734;7.086;2022-08-04T06:41:48;10.70;;;3.70;;
68800;SDS011;55784;50.734;7.086;2022-08-04T06:44:15;9.57;;;3.78;;
68800;SDS011;55784;50.734;7.086;2022-08-04T06:46:41;9.32;;;3.72;;
68800;SDS011;55784;50.734;7.086;2022-08-04T06:49:07;7.93;;;3.70;;
68800;SDS011;55784;50.734;7.086;2022-08-04T06:51:34;7.28;;;3.60;;
68800;SDS011;55784;50.734;7.086;2022-08-04T06:54:01;7.57;;;3.60;;
68800;SDS011;55784;50.734;7.086;2022-08-04T06:56:27;10.20;;;4.50;;
68800;SDS011;55784;50.734;7.086;2022-08-04T06:58:55;8.23;;;3.58;;
68800;SDS011;55784;50.734;7.086;2022-08-04T07:01:20;10.57;;;3.75;;
68800;SDS011;55784;50.734;7.086;2022-08-04T07:03:48;8.38;;;4.38;;
68800;SDS011;55784;50.734;7.086;2022-08-04T07:06:14;8.13;;;3.83;;
68800;SDS011;55784;50.734;7.086;2022-08-04T07:08:40;9.57;;;3.90;;
68800;SDS011;55784;50.734;7.086;2022-08-04T07:11:06;8.55;;;4.35;;
68800;SDS011;55784;50.734;7.086;2022-08-04T07:13:32;8.97;;;3.90;;
68800;SDS011;55784;50.734;7.086;2022-08-04T07:15:58;8.02;;;4.00;;
68800;SDS011;55784;50.734;7.086;2022-08-04T07:18:24;11.43;;;3.83;;
68800;SDS011;55784;50.734;7.086;2022-08-04T07:20:50;7.85;;;3.42;;
68800;SDS011;55784;50.734;7.086;2022-08-04T07:23:17;8.80;;;4.43;;
68800;SDS011;55784;50.734;7.086;2022-08-04T07:25:51;8.15;;;3.70;;
68800;SDS011;55784;50.734;7.086;2022-08-04T07:28:18;9.63;;;4.93;;
68800;SDS011;55784;50.734;7.086;2022-08-04T07:30:46;7.97;;;3.63;;
68800;SDS011;55784;50.734;7.086;2022-08-04T07:33:12;10.73;;;3.20;;
68800;SDS011;55784;50.734;7.086;2022-08-04T07:35:39;7.80;;;4.00;;
68800;SDS011;55784;50.734;7.086;2022-08-04T07:38:05;7.60;;;3.60;;
68800;SDS011;55784;50.734;7.086;2022-08-04T07:40:31;9.35;;;3.80;;
68800;SDS011;55784;50.734;7.086;2022-08-04T07:42:57;9.70;;;3.63;;
68800;SDS011;55784;50.734;7.086;2022-08-04T07:45:23;8.50;;;3.47;;
68800;SDS011;55784;50.734;7.086;2022-08-04T07:47:49;7.10;;;3.35;;
68800;SDS011;55784;50.734;7.086;2022-08-04T07:50:17;9.63;;;3.83;;
68800;SDS011;55784;50.734;7.086;2022-08-04T07:52:44;7.93;;;3.30;;
68800;SDS011;55784;50.734;7.086;2022-08-04T07:55:10;7.18;;;3.40;;
68800;SDS011;55784;50.734;7.086;2022-08-04T07:57:36;8.48;;;3.30;;
68800;SDS011;55784;50.734;7.086;2022-08-04T08:00:05;9.83;;;3.50;;
68800;SDS011;55784;50.734;7.086;2022-08-04T08:02:31;8.65;;;3.65;;
68800;SDS011;55784;50.734;7.086;2022-08-04T08:04:58;8.00;;;4.07;;
68800;SDS011;55784;50.734;7.086;2022-08-04T08:07:24;7.20;;;3.70;;
68800;SDS011;55784;50.734;7.086;2022-08-04T08:09:50;7.60;;;3.53;;
68800;SDS011;55784;50.734;7.086;2022-08-04T08:12:15;8.53;;;3.57;;
68800;SDS011;55784;50.734;7.086;2022-08-04T08:14:41;9.67;;;3.63;;
68800;SDS011;55784;50.734;7.086;2022-08-04T08:17:07;9.93;;;3.40;;
68800;SDS011;55784;50.734;7.086;2022-08-04T08:19:33;8.53;;;3.57;;
68800;SDS011;55784;50.734;7.086;2022-08-04T08:21:59;7.47;;;3.40;;
68800;SDS011;55784;50.734;7.086;2022-08-04T08:24:26;7.57;;;3.42;;
68800;SDS011;55784;50.734;7.086;2022-08-04T08:26:53;7.93;;;3.40;;
68800;SDS011;55784;50.734;7.086;2022-08-04T08:29:18;7.73;;;3.50;;
68800;SDS011;55784;50.734;7.086;2022-08-04T08:31:44;7.50;;;3.33;;
68800;SDS011;55784;50.734;7.086;2022-08-04T08:34:10;7.70;;;3.40;;
68800;SDS011;55784;50.734;7.086;2022-08-04T08:36:52;10.03;;;3.33;;
68800;SDS011;55784;50.734;7.086;2022-08-04T08:39:34;7.75;;;3.42;;
68800;SDS011;55784;50.734;7.086;2022-08-04T08:53:22;9.93;;;3.53;;
68800;SDS011;55784;50.734;7.086;2022-08-04T09:15:23;7.68;;;3.80;;
68800;SDS011;55784;50.734;7.086;2022-08-04T09:18:17;7.53;;;3.40;;
68800;SDS011;55784;50.734;7.086;2022-08-04T09:20:49;6.53;;;3.38;;
68800;SDS011;55784;50.734;7.086;2022-08-04T09:26:00;6.38;;;3.42;;
68800;SDS011;55784;50.734;7.086;2022-08-04T09:28:34;6.38;;;3.30;;
68800;SDS011;55784;50.734;7.086;2022-08-04T09:31:18;8.33;;;3.50;;
68800;SDS011;55784;50.734;7.086;2022-08-04T09:33:49;6.60;;;2.90;;
68800;SDS011;55784;50.734;7.086;2022-08-04T09:36:43;8.35;;;3.45;;
68800;SDS011;55784;50.734;7.086;2022-08-04T09:39:32;6.32;;;3.25;;
68800;SDS011;55784;50.734;7.086;2022-08-04T09:42:27;6.07;;;3.10;;
68800;SDS011;55784;50.734;7.086;2022-08-04T09:47:34;7.50;;;3.00;;
68800;SDS011;55784;50.734;7.086;2022-08-04T09:50:10;7.25;;;3.20;;
68800;SDS011;55784;50.734;7.086;2022-08-04T09:52:48;6.45;;;3.03;;
68800;SDS011;55784;50.734;7.086;2022-08-04T10:01:18;7.40;;;3.10;;
68800;SDS011;55784;50.734;7.086;2022-08-04T10:03:48;8.25;;;3.20;;
68800;SDS011;55784;50.734;7.086;2022-08-04T10:09:00;6.43;;;2.50;;
68800;SDS011;55784;50.734;7.086;2022-08-04T10:11:39;5.27;;;2.50;;
68800;SDS011;55784;50.734;7.086;2022-08-04T10:17:30;5.90;;;3.10;;
68800;SDS011;55784;50.734;7.086;2022-08-04T10:22:56;5.72;;;3.30;;
68800;SDS011;55784;50.734;7.086;2022-08-04T10:25:33;7.93;;;2.90;;
68800;SDS011;55784;50.734;7.086;2022-08-04T10:28:10;7.05;;;3.25;;
68800;SDS011;55784;50.734;7.086;2022-08-04T10:30:40;7.60;;;2.92;;
68800;SDS011;55784;50.734;7.086;2022-08-04T10:36:05;5.70;;;2.60;;
68800;SDS011;55784;50.734;7.086;2022-08-04T10:38:41;5.93;;;3.00;;
68800;SDS011;55784;50.734;7.086;2022-08-04T10:41:12;5.85;;;2.50;;
68800;SDS011;55784;50.734;7.086;2022-08-04T10:47:03;5.47;;;2.60;;
68800;SDS011;55784;50.734;7.086;2022-08-04T10:49:17;8.30;;;2.70;;
68800;SDS011;55784;50.734;7.086;2022-08-04T10:51:50;14.53;;;2.70;;
68800;SDS011;55784;50.734;7.086;2022-08-04T10:54:25;5.65;;;2.60;;
68800;SDS011;55784;50.734;7.086;2022-08-04T10:56:54;8.95;;;2.65;;
68800;SDS011;55784;50.734;7.086;2022-08-04T11:02:11;5.47;;;2.35;;
68800;SDS011;55784;50.734;7.086;2022-08-04T11:07:32;4.78;;;2.30;;
68800;SDS011;55784;50.734;7.086;2022-08-04T11:10:01;6.15;;;2.40;;
68800;SDS011;55784;50.734;7.086;2022-08-04T11:12:26;5.73;;;2.37;;
68800;SDS011;55784;50.734;7.086;2022-08-04T11:15:12;8.30;;;2.53;;
68800;SDS011;55784;50.734;7.086;2022-08-04T11:17:49;7.65;;;2.40;;
68800;SDS011;55784;50.734;7.086;2022-08-04T11:23:08;5.55;;;1.73;;
68800;SDS011;55784;50.734;7.086;2022-08-04T11:25:35;4.97;;;1.70;;
68800;SDS011;55784;50.734;7.086;2022-08-04T11:28:27;4.22;;;1.70;;
68800;SDS011;55784;50.734;7.086;2022-08-04T11:31:11;5.38;;;1.90;;
68800;SDS011;55784;50.734;7.086;2022-08-04T11:33:53;5.38;;;1.67;;
68800;SDS011;55784;50.734;7.086;2022-08-04T11:39:33;3.67;;;1.60;;
68800;SDS011;55784;50.734;7.086;2022-08-04T11:42:04;5.70;;;1.90;;
68800;SDS011;55784;50.734;7.086;2022-08-04T11:44:40;6.63;;;1.90;;
68800;SDS011;55784;50.734;7.086;2022-08-04T11:47:33;7.57;;;2.35;;
68800;SDS011;55784;50.734;7.086;2022-08-04T11:50:28;6.97;;;2.30;;
68800;SDS011;55784;50.734;7.086;2022-08-04T11:52:53;8.33;;;2.60;;
68800;SDS011;55784;50.734;7.086;2022-08-04T11:55:20;7.63;;;2.50;;
68800;SDS011;55784;50.734;7.086;2022-08-04T11:57:47;6.00;;;2.17;;
68800;SDS011;55784;50.734;7.086;2022-08-04T12:00:13;8.40;;;2.35;;
68800;SDS011;55784;50.734;7.086;2022-08-04T12:05:42;6.53;;;2.53;;
68800;SDS011;55784;50.734;7.086;2022-08-04T12:11:08;8.07;;;2.30;;
68800;SDS011;55784;50.734;7.086;2022-08-04T12:13:45;8.25;;;2.45;;
68800;SDS011;55784;50.734;7.086;2022-08-04T12:16:21;9.88;;;2.80;;
68800;SDS011;55784;50.734;7.086;2022-08-04T12:18:56;7.03;;;2.63;;
68800;SDS011;55784;50.734;7.086;2022-08-04T12:21:30;9.55;;;2.85;;
68800;SDS011;55784;50.734;7.086;2022-08-04T12:24:00;8.55;;;3.00;;
68800;SDS011;55784;50.734;7.086;2022-08-04T12:26:31;8.85;;;2.97;;
68800;SDS011;55784;50.734;7.086;2022-08-04T12:29:00;8.70;;;2.78;;
68800;SDS011;55784;50.734;7.086;2022-08-04T12:31:34;9.27;;;2.80;;
68800;SDS011;55784;50.734;7.086;2022-08-04T12:34:06;9.68;;;2.80;;
68800;SDS011;55784;50.734;7.086;2022-08-04T12:36:44;10.05;;;3.10;;
68800;SDS011;55784;50.734;7.086;2022-08-04T12:39:19;8.30;;;2.70;;
68800;SDS011;55784;50.734;7.086;2022-08-04T12:42:12;8.63;;;2.80;;
68800;SDS011;55784;50.734;7.086;2022-08-04T12:44:45;6.83;;;2.70;;
68800;SDS011;55784;50.734;7.086;2022-08-04T12:47:17;8.85;;;2.75;;
68800;SDS011;55784;50.734;7.086;2022-08-04T12:49:47;8.68;;;2.60;;
68800;SDS011;55784;50.734;7.086;2022-08-04T12:52:16;8.52;;;2.80;;
68800;SDS011;55784;50.734;7.086;2022-08-04T12:54:44;8.15;;;3.10;;
68800;SDS011;55784;50.734;7.086;2022-08-04T12:57:12;9.70;;;3.17;;
68800;SDS011;55784;50.734;7.086;2022-08-04T12:59:40;7.85;;;2.90;;
68800;SDS011;55784;50.734;7.086;2022-08-04T13:02:26;11.10;;;3.10;;
68800;SDS011;55784;50.734;7.086;2022-08-04T13:05:02;9.82;;;2.78;;
68800;SDS011;55784;50.734;7.086;2022-08-04T13:07:50;7.28;;;2.60;;
68800;SDS011;55784;50.734;7.086;2022-08-04T13:10:19;9.13;;;2.50;;
68800;SDS011;55784;50.734;7.086;2022-08-04T13:12:55;7.18;;;2.47;;
68800;SDS011;55784;50.734;7.086;2022-08-04T13:15:23;6.22;;;2.38;;
68800;SDS011;55784;50.734;7.086;2022-08-04T13:18:02;8.05;;;2.38;;
68800;SDS011;55784;50.734;7.086;2022-08-04T13:20:33;9.43;;;2.70;;
68800;SDS011;55784;50.734;7.086;2022-08-04T13:23:07;8.47;;;2.50;;
68800;SDS011;55784;50.734;7.086;2022-08-04T13:25:36;6.65;;;2.42;;
68800;SDS011;55784;50.734;7.086;2022-08-04T13:28:18;6.05;;;2.30;;
68800;SDS011;55784;50.734;7.086;2022-08-04T13:30:47;8.38;;;2.40;;
68800;SDS011;55784;50.734;7.086;2022-08-04T13:33:17;8.23;;;2.50;;
68800;SDS011;55784;50.734;7.086;2022-08-04T13:35:47;6.53;;;2.40;;
68800;SDS011;55784;50.734;7.086;2022-08-04T13:38:24;7.68;;;2.30;;
68800;SDS011;55784;50.734;7.086;2022-08-04T13:40:52;8.75;;;2.35;;
68800;SDS011;55784;50.734;7.086;2022-08-04T13:43:22;8.57;;;2.60;;
68800;SDS011;55784;50.734;7.086;2022-08-04T13:45:52;10.25;;;2.20;;
68800;SDS011;55784;50.734;7.086;2022-08-04T13:48:24;6.10;;;2.30;;
68800;SDS011;55784;50.734;7.086;2022-08-04T13:50:57;7.53;;;2.40;;
68800;SDS011;55784;50.734;7.086;2022-08-04T13:53:29;6.55;;;2.42;;
68800;SDS011;55784;50.734;7.086;2022-08-04T13:55:59;7.10;;;2.50;;
68800;SDS011;55784;50.734;7.086;2022-08-04T13:58:27;7.63;;;2.63;;
68800;SDS011;55784;50.734;7.086;2022-08-04T14:01:03;6.80;;;2.57;;
68800;SDS011;55784;50.734;7.086;2022-08-04T14:03:43;6.90;;;2.40;;
68800;SDS011;55784;50.734;7.086;2022-08-04T14:06:19;8.77;;;2.60;;
68800;SDS011;55784;50.734;7.086;2022-08-04T14:11:16;9.98;;;2.60;;
68800;SDS011;55784;50.734;7.086;2022-08-04T14:13:42;8.67;;;2.60;;
68800;SDS011;55784;50.734;7.086;2022-08-04T14:16:16;7.68;;;2.70;;
68800;SDS011;55784;50.734;7.086;2022-08-04T14:18:45;6.93;;;2.70;;
68800;SDS011;55784;50.734;7.086;2022-08-04T14:21:13;7.90;;;2.50;;
68800;SDS011;55784;50.734;7.086;2022-08-04T14:26:18;8.27;;;2.40;;
68800;SDS011;55784;50.734;7.086;2022-08-04T14:28:46;6.90;;;2.30;;
68800;SDS011;55784;50.734;7.086;2022-08-04T14:31:19;9.43;;;2.60;;
68800;SDS011;55784;50.734;7.086;2022-08-04T14:33:46;9.02;;;2.60;;
68800;SDS011;55784;50.734;7.086;2022-08-04T14:36:13;8.68;;;2.40;;
68800;SDS011;55784;50.734;7.086;2022-08-04T14:38:47;9.32;;;2.50;;
68800;SDS011;55784;50.734;7.086;2022-08-04T14:41:23;5.87;;;2.60;;
68800;SDS011;55784;50.734;7.086;2022-08-04T14:43:53;7.05;;;2.50;;
68800;SDS011;55784;50.734;7.086;2022-08-04T14:46:21;10.82;;;2.97;;
68800;SDS011;55784;50.734;7.086;2022-08-04T14:49:04;10.20;;;2.65;;
68800;SDS011;55784;50.734;7.086;2022-08-04T14:51:33;9.55;;;2.75;;
68800;SDS011;55784;50.734;7.086;2022-08-04T14:54:04;7.37;;;2.57;;
68800;SDS011;55784;50.734;7.086;2022-08-04T14:56:30;10.85;;;3.00;;
68800;SDS011;55784;50.734;7.086;2022-08-04T14:59:00;7.68;;;3.00;;
68800;SDS011;55784;50.734;7.086;2022-08-04T15:01:28;9.57;;;2.92;;
68800;SDS011;55784;50.734;7.086;2022-08-04T15:03:54;9.33;;;2.97;;
68800;SDS011;55784;50.734;7.086;2022-08-04T15:06:25;6.70;;;2.85;;
68800;SDS011;55784;50.734;7.086;2022-08-04T15:08:52;8.50;;;3.05;;
68800;SDS011;55784;50.734;7.086;2022-08-04T15:11:20;6.82;;;2.72;;
68800;SDS011;55784;50.734;7.086;2022-08-04T15:13:46;8.35;;;3.17;;
68800;SDS011;55784;50.734;7.086;2022-08-04T15:16:11;8.17;;;3.00;;
68800;SDS011;55784;50.734;7.086;2022-08-04T15:18:38;10.48;;;3.20;;
68800;SDS011;55784;50.734;7.086;2022-08-04T15:21:05;10.48;;;3.90;;
68800;SDS011;55784;50.734;7.086;2022-08-04T15:23:31;11.63;;;3.50;;
68800;SDS011;55784;50.734;7.086;2022-08-04T15:25:58;10.40;;;3.65;;
68800;SDS011;55784;50.734;7.086;2022-08-04T15:28:26;11.23;;;3.60;;
68800;SDS011;55784;50.734;7.086;2022-08-04T15:30:54;10.38;;;3.33;;
68800;SDS011;55784;50.734;7.086;2022-08-04T15:33:20;9.68;;;3.00;;
68800;SDS011;55784;50.734;7.086;2022-08-04T15:35:51;8.57;;;2.88;;
68800;SDS011;55784;50.734;7.086;2022-08-04T15:38:38;8.20;;;2.80;;
68800;SDS011;55784;50.734;7.086;2022-08-04T15:42:11;11.00;;;3.03;;
68800;SDS011;55784;50.734;7.086;2022-08-04T15:47:15;8.20;;;2.90;;
68800;SDS011;55784;50.734;7.086;2022-08-04T15:49:41;9.98;;;2.60;;
68800;SDS011;55784;50.734;7.086;2022-08-04T15:52:09;10.87;;;3.00;;
68800;SDS011;55784;50.734;7.086;2022-08-04T15:54:36;9.05;;;2.50;;
68800;SDS011;55784;50.734;7.086;2022-08-04T15:57:03;7.90;;;2.75;;
68800;SDS011;55784;50.734;7.086;2022-08-04T16:05:27;7.30;;;2.43;;
68800;SDS011;55784;50.734;7.086;2022-08-04T16:07:53;9.55;;;2.92;;
68800;SDS011;55784;50.734;7.086;2022-08-04T16:13:03;9.40;;;2.53;;
68800;SDS011;55784;50.734;7.086;2022-08-04T16:15:54;9.57;;;2.90;;
68800;SDS011;55784;50.734;7.086;2022-08-04T16:20:49;10.85;;;2.88;;
68800;SDS011;55784;50.734;7.086;2022-08-04T16:26:00;12.50;;;3.40;;
68800;SDS011;55784;50.734;7.086;2022-08-04T16:28:36;12.00;;;3.27;;
68800;SDS011;55784;50.734;7.086;2022-08-04T16:31:06;9.98;;;3.10;;
68800;SDS011;55784;50.734;7.086;2022-08-04T16:33:34;8.98;;;3.38;;
68800;SDS011;55784;50.734;7.086;2022-08-04T16:36:00;9.43;;;3.40;;
68800;SDS011;55784;50.734;7.086;2022-08-04T16:38:26;11.18;;;3.90;;
68800;SDS011;55784;50.734;7.086;2022-08-04T16:40:53;9.70;;;3.60;;
68800;SDS011;55784;50.734;7.086;2022-08-04T16:43:20;10.37;;;4.03;;
68800;SDS011;55784;50.734;7.086;2022-08-04T16:45:48;10.98;;;4.00;;
68800;SDS011;55784;50.734;7.086;2022-08-04T16:48:32;10.63;;;3.75;;
68800;SDS011;55784;50.734;7.086;2022-08-04T16:50:59;10.63;;;3.78;;
68800;SDS011;55784;50.734;7.086;2022-08-04T16:53:26;8.93;;;3.03;;
68800;SDS011;55784;50.734;7.086;2022-08-04T16:55:59;9.83;;;3.80;;
68800;SDS011;55784;50.734;7.086;2022-08-04T16:58:29;8.82;;;3.40;;
68800;SDS011;55784;50.734;7.086;2022-08-04T17:00:56;9.73;;;3.88;;
68800;SDS011;55784;50.734;7.086;2022-08-04T17:03:22;8.65;;;3.65;;
68800;SDS011;55784;50.734;7.086;2022-08-04T17:05:49;11.32;;;4.10;;
68800;SDS011;55784;50.734;7.086;2022-08-04T17:08:15;8.77;;;3.83;;
68800;SDS011;55784;50.734;7.086;2022-08-04T17:10:44;9.98;;;4.65;;
68800;SDS011;55784;50.734;7.086;2022-08-04T17:13:19;10.13;;;5.10;;
68800;SDS011;55784;50.734;7.086;2022-08-04T17:15:47;9.75;;;3.97;;
68800;SDS011;55784;50.734;7.086;2022-08-04T17:18:14;9.90;;;3.90;;
68800;SDS011;55784;50.734;7.086;2022-08-04T17:21:03;8.57;;;3.88;;
68800;SDS011;55784;50.734;7.086;2022-08-04T17:23:45;11.02;;;3.83;;
68800;SDS011;55784;50.734;7.086;2022-08-04T17:26:14;12.43;;;4.23;;
68800;SDS011;55784;50.734;7.086;2022-08-04T17:28:43;10.05;;;3.83;;
68800;SDS011;55784;50.734;7.086;2022-08-04T17:31:11;11.32;;;3.90;;
68800;SDS011;55784;50.734;7.086;2022-08-04T17:33:37;10.18;;;3.67;;
68800;SDS011;55784;50.734;7.086;2022-08-04T17:36:04;9.77;;;3.80;;
68800;SDS011;55784;50.734;7.086;2022-08-04T17:38:42;7.80;;;3.60;;
68800;SDS011;55784;50.734;7.086;2022-08-04T17:41:13;9.98;;;3.88;;
68800;SDS011;55784;50.734;7.086;2022-08-04T17:48:40;8.85;;;3.50;;
68800;SDS011;55784;50.734;7.086;2022-08-04T17:51:13;9.75;;;3.80;;
68800;SDS011;55784;50.734;7.086;2022-08-04T17:53:39;7.80;;;3.70;;
68800;SDS011;55784;50.734;7.086;2022-08-04T17:56:05;8.63;;;4.03;;
68800;SDS011;55784;50.734;7.086;2022-08-04T17:58:30;12.10;;;3.67;;
68800;SDS011;55784;50.734;7.086;2022-08-04T18:00:59;9.03;;;3.37;;
68800;SDS011;55784;50.734;7.086;2022-08-04T18:03:26;9.70;;;3.65;;
68800;SDS011;55784;50.734;7.086;2022-08-04T18:05:52;9.77;;;3.60;;
68800;SDS011;55784;50.734;7.086;2022-08-04T18:08:23;9.48;;;3.80;;
68800;SDS011;55784;50.734;7.086;2022-08-04T18:10:50;8.40;;;3.80;;
68800;SDS011;55784;50.734;7.086;2022-08-04T18:13:17;10.20;;;4.10;;
68800;SDS011;55784;50.734;7.086;2022-08-04T18:15:42;8.00;;;3.60;;
68800;SDS011;55784;50.734;7.086;2022-08-04T18:18:15;11.40;;;3.93;;
68800;SDS011;55784;50.734;7.086;2022-08-04T18:20:45;9.57;;;3.67;;
68800;SDS011;55784;50.734;7.086;2022-08-04T18:23:11;10.20;;;4.13;;
68800;SDS011;55784;50.734;7.086;2022-08-04T18:25:37;9.52;;;3.80;;
68800;SDS011;55784;50.734;7.086;2022-08-04T18:28:11;11.93;;;4.07;;
68800;SDS011;55784;50.734;7.086;2022-08-04T18:31:12;9.65;;;4.00;;
68800;SDS011;55784;50.734;7.086;2022-08-04T18:34:10;8.45;;;3.85;;
68800;SDS011;55784;50.734;7.086;2022-08-04T18:36:35;9.67;;;4.33;;
68800;SDS011;55784;50.734;7.086;2022-08-04T18:39:02;11.00;;;3.80;;
68800;SDS011;55784;50.734;7.086;2022-08-04T18:41:28;9.48;;;3.95;;
68800;SDS011;55784;50.734;7.086;2022-08-04T18:43:54;8.05;;;3.70;;
68800;SDS011;55784;50.734;7.086;2022-08-04T18:46:23;10.83;;;4.13;;
68800;SDS011;55784;50.734;7.086;2022-08-04T18:49:21;9.93;;;4.40;;
68800;SDS011;55784;50.734;7.086;2022-08-04T18:51:48;9.32;;;4.00;;
68800;SDS011;55784;50.734;7.086;2022-08-04T18:54:15;11.05;;;4.30;;
68800;SDS011;55784;50.734;7.086;2022-08-04T18:56:43;9.07;;;3.80;;
68800;SDS011;55784;50.734;7.086;2022-08-04T18:59:12;8.30;;;4.20;;
68800;SDS011;55784;50.734;7.086;2022-08-04T19:01:46;8.77;;;4.00;;
68800;SDS011;55784;50.734;7.086;2022-08-04T19:11:41;11.50;;;4.57;;
68800;SDS011;55784;50.734;7.086;2022-08-04T19:14:06;9.55;;;4.60;;